Time;durP1;ratioP1;P1;durP2;ratioP2;P2;SDS_P1;SDS_P2;PMS_P1;PMS_P2;Temp;Humidity;BMP_temperature;BMP_pressure;BME280_temperature;BME280_humidity;BME280_pressure;Samples;Min_cycle;Max_cycle;Signal;HPM_P1;HPM_P2
2022/01/31 00:02:59;;;;;;;4.27;2.90;;;4.50;52.20;;;;;;6292089;28;20477;-65
2022/01/31 00:06:02;;;;;;;5.97;4.20;;;4.50;52.40;;;;;;6274578;28;20552;-65
2022/01/31 00:09:12;;;;;;;7.00;4.03;;;4.50;52.60;;;;;;6274399;28;20465;-68
2022/01/31 00:12:18;;;;;;;6.97;3.33;;;4.40;52.70;;;;;;6274471;28;20491;-64
2022/01/31 00:15:21;;;;;;;4.80;3.30;;;4.30;53.00;;;;;;6274249;28;20962;-68
2022/01/31 00:18:26;;;;;;;3.87;2.83;;;4.20;53.30;;;;;;6287247;28;20505;-65
2022/01/31 00:21:30;;;;;;;5.50;3.27;;;4.20;53.90;;;;;;6297414;28;20526;-64
2022/01/31 00:24:34;;;;;;;4.03;3.37;;;4.10;53.80;;;;;;6298265;28;20527;-65
2022/01/31 00:27:37;;;;;;;5.47;2.90;;;4.10;54.10;;;;;;6296172;28;21039;-65
2022/01/31 00:30:40;;;;;;;4.67;3.37;;;4.10;54.00;;;;;;6297158;28;20837;-65
2022/01/31 00:33:45;;;;;;;4.70;3.43;;;4.10;54.20;;;;;;6297589;28;20969;-65
2022/01/31 00:36:48;;;;;;;6.37;3.70;;;4.10;54.30;;;;;;6297367;28;20477;-65
2022/01/31 00:39:51;;;;;;;3.77;2.97;;;4.10;54.20;;;;;;6297539;28;20469;-65
2022/01/31 00:42:54;;;;;;;3.43;2.60;;;4.10;54.30;;;;;;6299500;28;20483;-65
2022/01/31 00:46:01;;;;;;;3.63;2.90;;;4.00;54.20;;;;;;6299857;28;20476;-64
2022/01/31 00:49:11;;;;;;;3.07;2.73;;;3.90;54.30;;;;;;6298984;28;20465;-64
2022/01/31 00:52:14;;;;;;;3.37;2.87;;;3.90;54.70;;;;;;6283176;28;20531;-67
2022/01/31 00:55:18;;;;;;;3.97;2.80;;;3.90;55.30;;;;;;6278100;28;20442;-68
2022/01/31 00:58:21;;;;;;;6.30;3.23;;;3.80;54.90;;;;;;6278826;28;20485;-67
2022/01/31 01:01:24;;;;;;;5.00;2.90;;;3.70;55.50;;;;;;6277774;28;20473;-65
2022/01/31 01:04:29;;;;;;;9.10;3.20;;;3.70;55.20;;;;;;6277207;28;20549;-66
2022/01/31 01:07:32;;;;;;;4.90;2.87;;;3.70;55.10;;;;;;6277678;28;20535;-66
2022/01/31 01:10:35;;;;;;;4.17;3.77;;;3.80;55.20;;;;;;6276837;28;20862;-66
2022/01/31 01:13:38;;;;;;;3.87;3.43;;;3.80;55.00;;;;;;6277085;28;20956;-67
2022/01/31 01:16:41;;;;;;;4.07;3.33;;;3.80;54.90;;;;;;6277941;28;20492;-65
2022/01/31 01:19:46;;;;;;;3.53;2.90;;;3.80;55.00;;;;;;6279118;28;20921;-65
2022/01/31 01:22:49;;;;;;;4.00;2.43;;;3.80;55.10;;;;;;6285436;28;20853;-67
2022/01/31 01:25:52;;;;;;;3.37;2.77;;;3.80;55.10;;;;;;6279258;28;20469;-64
2022/01/31 01:28:55;;;;;;;6.03;2.80;;;3.80;55.50;;;;;;6278020;28;20477;-65
2022/01/31 01:31:58;;;;;;;3.97;2.63;;;3.80;55.60;;;;;;6277931;28;20462;-66
2022/01/31 01:35:05;;;;;;;5.63;3.13;;;3.80;55.60;;;;;;6278538;28;20474;-65
2022/01/31 01:38:09;;;;;;;3.30;2.50;;;3.80;55.80;;;;;;6278399;28;20485;-65
2022/01/31 01:41:12;;;;;;;3.10;2.30;;;3.70;55.70;;;;;;6277443;28;20979;-66
2022/01/31 01:44:15;;;;;;;3.37;2.90;;;3.80;56.00;;;;;;6278012;28;20465;-67
2022/01/31 01:47:20;;;;;;;3.00;2.23;;;3.70;55.80;;;;;;6277791;28;20466;-64
2022/01/31 01:50:25;;;;;;;3.90;2.77;;;3.60;56.00;;;;;;6277823;28;20973;-64
2022/01/31 01:53:28;;;;;;;3.50;2.20;;;3.60;56.10;;;;;;6268585;28;20513;-64
2022/01/31 01:56:32;;;;;;;3.63;2.47;;;3.50;56.00;;;;;;6277156;28;20982;-66
2022/01/31 01:59:37;;;;;;;2.50;2.10;;;3.50;56.60;;;;;;6277258;28;20795;-64
2022/01/31 02:02:40;;;;;;;2.80;2.60;;;3.50;56.50;;;;;;6276274;28;20790;-65
2022/01/31 02:05:45;;;;;;;2.30;1.93;;;3.50;56.60;;;;;;6276860;28;20470;-65
2022/01/31 02:08:49;;;;;;;2.60;2.23;;;3.50;56.60;;;;;;6278017;28;20966;-64
2022/01/31 02:11:54;;;;;;;6.10;2.43;;;3.50;56.60;;;;;;6276779;28;20478;-66
2022/01/31 02:14:59;;;;;;;2.00;1.70;;;3.40;56.40;;;;;;6277044;28;20470;-66
2022/01/31 02:18:02;;;;;;;2.27;1.80;;;3.30;56.70;;;;;;6276848;28;20478;-66
2022/01/31 02:21:07;;;;;;;1.90;1.70;;;3.20;57.00;;;;;;6277127;28;20474;-67
2022/01/31 02:24:11;;;;;;;3.43;2.30;;;3.30;57.50;;;;;;6276852;28;20512;-68
2022/01/31 02:27:14;;;;;;;2.53;2.33;;;3.30;57.50;;;;;;6276348;28;20862;-66
2022/01/31 02:30:18;;;;;;;3.53;2.40;;;3.40;57.50;;;;;;6276734;28;20799;-66
2022/01/31 02:33:21;;;;;;;2.93;2.53;;;3.30;57.50;;;;;;6276357;28;20504;-66
2022/01/31 02:36:26;;;;;;;3.40;2.23;;;3.30;57.70;;;;;;6276364;28;20482;-66
2022/01/31 02:39:29;;;;;;;3.03;1.90;;;3.20;57.70;;;;;;6276431;28;20477;-67
2022/01/31 02:42:32;;;;;;;2.60;1.93;;;3.20;57.90;;;;;;6275944;28;20489;-67
2022/01/31 02:45:35;;;;;;;6.93;2.03;;;3.10;57.80;;;;;;6276301;28;20479;-68
2022/01/31 02:48:39;;;;;;;3.63;2.27;;;3.10;58.10;;;;;;6275976;28;20989;-68
2022/01/31 02:51:47;;;;;;;2.40;2.20;;;3.10;58.20;;;;;;6275908;28;20482;-68
2022/01/31 02:54:50;;;;;;;5.10;2.23;;;3.10;58.40;;;;;;6275855;28;20539;-67
2022/01/31 02:57:54;;;;;;;4.30;1.80;;;3.10;58.50;;;;;;6276023;28;20766;-66
2022/01/31 03:00:59;;;;;;;4.10;2.53;;;3.10;58.40;;;;;;6275821;28;20466;-68
2022/01/31 03:04:03;;;;;;;3.93;2.60;;;3.10;58.30;;;;;;6276256;28;20474;-66
2022/01/31 03:07:07;;;;;;;2.50;2.17;;;2.90;58.90;;;;;;6275617;28;20771;-65
2022/01/31 03:10:10;;;;;;;3.20;1.90;;;3.00;58.50;;;;;;6275698;28;20845;-66
2022/01/31 03:13:14;;;;;;;2.13;1.97;;;3.00;58.40;;;;;;6275120;28;20485;-67
2022/01/31 03:16:17;;;;;;;1.83;1.63;;;3.10;58.60;;;;;;6276104;28;20442;-67
2022/01/31 03:19:21;;;;;;;3.73;2.20;;;3.00;58.50;;;;;;6275226;28;20486;-65
2022/01/31 03:22:25;;;;;;;2.13;1.93;;;3.00;58.40;;;;;;6276005;28;20469;-66
2022/01/31 03:25:29;;;;;;;2.43;2.23;;;2.90;58.60;;;;;;6275371;28;20468;-66
2022/01/31 03:28:32;;;;;;;2.30;2.10;;;2.80;59.00;;;;;;6275428;28;20466;-67
2022/01/31 03:31:35;;;;;;;3.50;2.80;;;2.80;59.30;;;;;;6275663;28;20470;-67
2022/01/31 03:34:39;;;;;;;2.40;2.07;;;2.80;59.50;;;;;;6276455;28;20470;-67
2022/01/31 03:37:43;;;;;;;4.00;2.30;;;2.80;59.80;;;;;;6275454;28;20472;-65
2022/01/31 03:40:46;;;;;;;3.13;2.20;;;2.80;59.90;;;;;;6275371;28;20466;-67
2022/01/31 03:43:50;;;;;;;3.57;2.50;;;2.70;60.00;;;;;;6277534;28;20547;-66
2022/01/31 03:46:54;;;;;;;2.60;2.40;;;2.80;60.20;;;;;;6279201;28;20484;-67
2022/01/31 03:49:57;;;;;;;2.63;2.43;;;2.70;60.30;;;;;;6275317;28;20545;-66
2022/01/31 03:53:02;;;;;;;7.00;2.80;;;2.70;60.50;;;;;;6274638;28;20501;-66
2022/01/31 03:56:05;;;;;;;3.90;2.10;;;2.70;60.70;;;;;;6274660;28;20482;-66
2022/01/31 03:59:09;;;;;;;2.20;2.10;;;2.70;60.70;;;;;;6270641;28;20492;-68
2022/01/31 04:02:12;;;;;;;3.83;2.97;;;2.60;60.70;;;;;;6274566;28;20469;-69
2022/01/31 04:05:15;;;;;;;2.57;2.37;;;2.60;61.10;;;;;;6274823;28;20971;-67
2022/01/31 04:08:20;;;;;;;3.40;2.53;;;2.70;61.20;;;;;;6276106;28;20858;-67
2022/01/31 04:11:23;;;;;;;7.53;2.90;;;2.70;61.40;;;;;;6274869;28;20474;-67
2022/01/31 04:14:27;;;;;;;4.13;3.00;;;2.70;61.30;;;;;;6274673;28;20477;-67
2022/01/31 04:17:32;;;;;;;5.17;3.20;;;2.80;61.70;;;;;;6275915;28;20474;-68
2022/01/31 04:20:36;;;;;;;3.63;2.90;;;2.70;61.60;;;;;;6277584;28;20462;-67
2022/01/31 04:23:40;;;;;;;3.27;2.47;;;2.70;62.00;;;;;;6274357;28;20504;-67
2022/01/31 04:26:54;;;;;;;3.63;2.20;;;2.70;62.20;;;;;;6278605;28;20878;-67
2022/01/31 04:29:58;;;;;;;4.73;3.00;;;2.70;61.90;;;;;;6280064;28;20462;-67
2022/01/31 04:33:01;;;;;;;3.20;2.20;;;2.70;61.60;;;;;;6279324;28;20790;-67
2022/01/31 04:36:05;;;;;;;3.03;2.57;;;2.70;61.80;;;;;;6279176;28;20814;-67
2022/01/31 04:39:15;;;;;;;8.07;3.00;;;2.80;61.80;;;;;;6279000;28;20603;-67
2022/01/31 04:42:18;;;;;;;5.03;2.77;;;2.80;61.70;;;;;;6291686;28;20515;-66
2022/01/31 04:45:21;;;;;;;4.37;2.37;;;2.70;61.70;;;;;;6302429;28;20862;-66
2022/01/31 04:48:25;;;;;;;2.60;2.30;;;2.80;62.30;;;;;;6300489;28;20461;-64
2022/01/31 04:51:28;;;;;;;3.60;2.57;;;2.80;61.90;;;;;;6302486;28;20542;-65
2022/01/31 04:54:32;;;;;;;7.03;3.03;;;2.80;61.70;;;;;;6300994;28;20476;-66
2022/01/31 04:57:35;;;;;;;2.20;2.00;;;2.80;61.90;;;;;;6301951;28;20469;-66
2022/01/31 05:00:39;;;;;;;4.10;2.83;;;2.80;61.90;;;;;;6302801;28;20487;-66
2022/01/31 05:03:44;;;;;;;5.47;2.83;;;2.90;62.10;;;;;;6298816;28;20487;-66
2022/01/31 05:06:49;;;;;;;4.70;2.50;;;2.90;62.00;;;;;;6301464;28;20553;-66
2022/01/31 05:09:53;;;;;;;5.90;2.50;;;2.90;61.70;;;;;;6302942;28;20922;-66
2022/01/31 05:12:56;;;;;;;5.60;2.80;;;2.90;61.60;;;;;;6301857;28;20480;-67
2022/01/31 05:16:00;;;;;;;4.17;2.60;;;2.90;61.80;;;;;;6303458;28;21184;-67
2022/01/31 05:19:04;;;;;;;2.80;2.60;;;2.90;61.80;;;;;;6303492;28;20465;-68
2022/01/31 05:22:07;;;;;;;6.10;2.33;;;3.00;61.90;;;;;;6303378;28;20469;-68
2022/01/31 05:25:11;;;;;;;3.27;2.70;;;2.90;61.80;;;;;;6302879;28;20934;-68
2022/01/31 05:28:15;;;;;;;4.87;3.17;;;2.90;62.10;;;;;;6303435;28;20441;-67
2022/01/31 05:31:18;;;;;;;4.43;2.40;;;2.90;62.30;;;;;;6303062;28;20495;-67
2022/01/31 05:34:23;;;;;;;2.60;2.40;;;2.80;62.50;;;;;;6302748;28;20936;-65
2022/01/31 05:37:27;;;;;;;3.23;2.80;;;2.80;62.50;;;;;;6302118;28;20452;-68
2022/01/31 05:40:31;;;;;;;4.80;3.80;;;2.80;62.30;;;;;;6302756;28;20787;-69
2022/01/31 05:43:34;;;;;;;8.90;2.80;;;2.90;62.40;;;;;;6302803;28;20476;-69
2022/01/31 05:46:37;;;;;;;4.80;3.10;;;2.80;62.50;;;;;;6304325;28;20859;-66
2022/01/31 05:49:41;;;;;;;6.37;3.57;;;2.80;62.60;;;;;;6302849;28;20476;-71
2022/01/31 05:52:44;;;;;;;5.73;3.13;;;2.80;62.80;;;;;;6302568;28;20469;-66
2022/01/31 05:55:49;;;;;;;5.97;3.40;;;2.80;62.90;;;;;;6302600;28;20481;-67
2022/01/31 05:58:52;;;;;;;3.70;3.10;;;2.70;63.20;;;;;;6302482;28;20523;-67
2022/01/31 06:01:57;;;;;;;7.47;4.00;;;2.70;63.80;;;;;;6292262;28;20480;-67
2022/01/31 06:05:00;;;;;;;4.27;2.97;;;2.70;64.00;;;;;;6301295;28;20533;-68
2022/01/31 06:08:04;;;;;;;3.43;2.80;;;2.70;64.30;;;;;;6302326;28;20974;-69
2022/01/31 06:11:08;;;;;;;5.07;2.93;;;2.80;64.30;;;;;;6302259;28;20476;-67
2022/01/31 06:14:11;;;;;;;9.83;3.60;;;2.90;64.30;;;;;;6301946;28;20473;-67
2022/01/31 06:17:14;;;;;;;6.20;3.70;;;2.90;64.10;;;;;;6301966;28;20484;-67
2022/01/31 06:20:18;;;;;;;6.70;3.63;;;3.00;64.00;;;;;;6302211;28;20477;-67
2022/01/31 06:23:21;;;;;;;7.70;3.97;;;3.00;63.60;;;;;;6301403;28;20856;-67
2022/01/31 06:26:25;;;;;;;7.33;3.83;;;3.00;63.40;;;;;;6301691;28;20522;-67
2022/01/31 06:29:28;;;;;;;4.37;3.00;;;3.10;63.50;;;;;;6303506;28;20495;-68
2022/01/31 06:32:32;;;;;;;8.40;4.47;;;3.10;63.40;;;;;;6301294;28;20473;-68
2022/01/31 06:35:35;;;;;;;6.77;4.13;;;3.10;63.40;;;;;;6301627;28;20469;-69
2022/01/31 06:38:38;;;;;;;14.00;4.37;;;3.10;63.40;;;;;;6299890;28;20491;-69
2022/01/31 06:41:43;;;;;;;5.33;3.33;;;3.20;63.40;;;;;;6299796;28;20476;-69
2022/01/31 06:44:46;;;;;;;6.40;3.07;;;3.10;63.20;;;;;;6299675;28;20465;-69
2022/01/31 06:47:49;;;;;;;5.50;3.50;;;3.20;63.40;;;;;;6299882;28;20476;-69
2022/01/31 06:50:52;;;;;;;13.57;4.57;;;3.20;63.50;;;;;;6299863;28;20468;-68
2022/01/31 06:53:57;;;;;;;12.50;4.23;;;3.20;63.90;;;;;;6300753;28;20839;-68
2022/01/31 06:57:04;;;;;;;6.43;4.27;;;3.30;64.30;;;;;;6301288;28;20473;-68
2022/01/31 07:00:09;;;;;;;4.77;3.47;;;3.30;64.10;;;;;;6300895;28;20473;-68
2022/01/31 07:03:13;;;;;;;5.03;4.03;;;3.30;63.80;;;;;;6301016;28;20502;-68
2022/01/31 07:06:16;;;;;;;11.43;5.10;;;3.40;63.70;;;;;;6296385;28;20495;-68
2022/01/31 07:09:21;;;;;;;7.00;4.83;;;3.50;63.80;;;;;;6302624;28;20848;-68
2022/01/31 07:12:31;;;;;;;16.80;4.20;;;3.50;63.10;;;;;;6306757;28;20479;-68
2022/01/31 07:15:35;;;;;;;12.63;4.90;;;3.50;62.70;;;;;;6305501;28;20493;-68
2022/01/31 07:18:39;;;;;;;6.80;4.43;;;3.60;63.00;;;;;;6300849;28;20800;-68
2022/01/31 07:21:48;;;;;;;18.03;4.80;;;3.60;62.60;;;;;;6300470;28;20980;-68
2022/01/31 07:25:01;;;;;;;8.40;4.87;;;3.70;62.70;;;;;;6300113;28;20473;-68
2022/01/31 07:28:09;;;;;;;10.30;5.43;;;3.80;62.30;;;;;;6300228;28;20480;-68
2022/01/31 07:31:12;;;;;;;14.17;5.37;;;3.80;62.30;;;;;;6299719;28;20458;-69
2022/01/31 07:34:17;;;;;;;8.97;5.00;;;3.90;62.40;;;;;;6300694;28;20441;-69
2022/01/31 07:37:21;;;;;;;9.20;5.20;;;3.90;62.60;;;;;;6301179;28;20434;-69
2022/01/31 07:40:24;;;;;;;7.23;5.47;;;4.00;62.50;;;;;;6301578;28;20502;-69
2022/01/31 07:43:30;;;;;;;7.87;5.00;;;4.10;62.40;;;;;;6301010;28;20481;-70
2022/01/31 07:46:34;;;;;;;8.83;4.60;;;4.10;62.20;;;;;;6301133;28;20461;-69
2022/01/31 07:49:37;;;;;;;7.80;4.90;;;4.10;61.70;;;;;;6299946;28;20526;-69
2022/01/31 07:52:41;;;;;;;7.10;5.23;;;4.20;61.50;;;;;;6299597;28;20787;-69
2022/01/31 07:55:44;;;;;;;6.90;5.20;;;4.30;61.40;;;;;;6300445;28;20469;-69
2022/01/31 07:58:49;;;;;;;13.07;4.67;;;4.30;61.30;;;;;;6299695;28;20476;-69
2022/01/31 08:01:52;;;;;;;6.53;4.53;;;4.40;61.40;;;;;;6299105;28;20995;-68
2022/01/31 08:04:59;;;;;;;12.10;5.30;;;4.40;61.10;;;;;;6299152;28;20543;-66
2022/01/31 08:08:02;;;;;;;12.87;4.67;;;4.50;60.70;;;;;;6279250;28;20469;-67
2022/01/31 08:11:06;;;;;;;8.03;5.13;;;4.50;60.70;;;;;;6286401;28;20466;-67
2022/01/31 08:14:12;;;;;;;6.63;5.03;;;4.50;61.10;;;;;;6277238;28;20799;-67
2022/01/31 08:17:15;;;;;;;9.77;4.93;;;4.60;61.30;;;;;;6299762;28;20464;-66
2022/01/31 08:20:18;;;;;;;10.43;5.20;;;4.70;61.40;;;;;;6299339;28;20473;-64
2022/01/31 08:23:21;;;;;;;12.87;5.63;;;4.80;61.10;;;;;;6288733;28;20542;-65
2022/01/31 08:26:24;;;;;;;8.13;5.00;;;4.90;60.90;;;;;;6288919;28;20465;-64
2022/01/31 08:29:30;;;;;;;12.57;5.90;;;4.90;60.30;;;;;;6278934;28;20523;-65
2022/01/31 08:32:44;;;;;;;9.63;5.73;;;5.00;59.90;;;;;;6273942;28;20974;-63
2022/01/31 08:35:50;;;;;;;7.73;4.60;;;5.00;59.90;;;;;;6274202;28;20481;-62
2022/01/31 08:38:55;;;;;;;5.87;4.63;;;5.10;60.00;;;;;;6274532;28;20548;-65
2022/01/31 08:41:58;;;;;;;8.33;4.57;;;5.30;59.50;;;;;;6274301;28;20966;-67
2022/01/31 08:45:04;;;;;;;10.40;4.10;;;5.30;59.00;;;;;;6274605;28;20470;-67
2022/01/31 08:48:07;;;;;;;7.83;4.57;;;5.50;58.90;;;;;;6273793;28;20979;-68
2022/01/31 08:51:11;;;;;;;12.63;5.30;;;5.60;58.50;;;;;;6273920;28;20481;-68
2022/01/31 08:54:16;;;;;;;12.10;5.67;;;5.70;58.40;;;;;;6273390;28;20504;-67
2022/01/31 08:57:19;;;;;;;9.13;4.93;;;5.80;57.90;;;;;;6273724;28;20474;-68
2022/01/31 09:00:33;;;;;;;11.23;5.10;;;5.90;57.50;;;;;;6273404;28;20974;-66
2022/01/31 09:03:44;;;;;;;14.60;5.90;;;5.90;57.50;;;;;;6275648;28;20589;-68
2022/01/31 09:06:53;;;;;;;7.40;4.73;;;5.90;57.60;;;;;;6298892;28;20519;-68
2022/01/31 09:09:57;;;;;;;12.63;5.47;;;5.90;57.50;;;;;;6298699;28;20839;-67
2022/01/31 09:13:00;;;;;;;9.97;5.20;;;5.80;57.40;;;;;;6301917;28;20468;-67
2022/01/31 09:16:05;;;;;;;6.70;4.87;;;5.70;57.60;;;;;;6288830;28;20538;-69
2022/01/31 09:19:08;;;;;;;9.10;4.70;;;5.70;57.80;;;;;;6302964;28;20477;-68
2022/01/31 09:22:12;;;;;;;8.20;4.00;;;5.60;57.60;;;;;;6302986;28;20958;-68
2022/01/31 09:25:16;;;;;;;9.80;3.70;;;5.60;57.50;;;;;;6302496;28;20446;-66
2022/01/31 09:28:19;;;;;;;11.77;4.20;;;5.70;57.20;;;;;;6278051;28;20442;-69
2022/01/31 09:31:24;;;;;;;5.63;3.57;;;5.70;57.00;;;;;;6278281;28;20442;-66
2022/01/31 09:34:27;;;;;;;5.80;4.00;;;5.80;56.80;;;;;;6278269;28;20532;-71
2022/01/31 09:37:30;;;;;;;7.90;3.57;;;5.90;56.80;;;;;;6277302;28;20450;-67
2022/01/31 09:40:34;;;;;;;13.20;5.23;;;5.90;56.60;;;;;;6277523;28;20535;-68
2022/01/31 09:47:08;;;;;;;7.60;3.90;;;6.10;56.40;;;;;;6277331;28;20528;-66
2022/01/31 09:50:11;;;;;;;9.40;4.70;;;6.10;56.60;;;;;;6277044;28;20471;-68
2022/01/31 09:53:14;;;;;;;12.70;4.70;;;6.10;56.00;;;;;;6276136;28;20474;-67
2022/01/31 09:56:21;;;;;;;9.00;4.80;;;6.00;55.80;;;;;;6276056;28;20492;-67
2022/01/31 09:59:24;;;;;;;6.60;3.90;;;6.00;56.10;;;;;;6275988;28;20544;-68
2022/01/31 10:02:29;;;;;;;15.73;5.37;;;6.10;56.10;;;;;;6275737;28;20477;-67
2022/01/31 10:05:32;;;;;;;9.60;4.87;;;6.20;55.90;;;;;;6276429;28;20470;-68
2022/01/31 10:08:35;;;;;;;12.40;5.00;;;6.20;56.00;;;;;;6284661;28;20493;-68
2022/01/31 10:11:46;;;;;;;12.63;5.20;;;6.10;56.40;;;;;;6278482;28;20501;-68
2022/01/31 10:18:13;;;;;;;11.37;5.50;;;6.10;56.00;;;;;;6278145;28;20474;-68
2022/01/31 10:21:59;;;;;;;7.37;6.07;;;6.10;56.10;;;;;;6276462;28;20916;-67
2022/01/31 10:25:07;;;;;;;10.30;7.33;;;6.10;56.80;;;;;;6277016;28;20485;-67
2022/01/31 10:28:12;;;;;;;28.23;11.20;;;6.10;57.70;;;;;;6276677;28;20478;-67
2022/01/31 10:31:17;;;;;;;14.50;10.00;;;6.00;59.10;;;;;;6276924;28;20450;-66
2022/01/31 10:34:25;;;;;;;19.50;11.00;;;5.80;59.60;;;;;;6286640;28;20433;-68
2022/01/31 10:37:30;;;;;;;14.80;11.63;;;5.80;60.00;;;;;;6301414;28;20506;-67
2022/01/31 10:51:21;;;;;;;22.87;11.00;;;5.60;62.30;;;;;;6301799;28;20473;-68
2022/01/31 10:54:44;;;;;;;23.57;11.30;;;5.70;62.70;;;;;;6309323;28;20479;-67
2022/01/31 10:58:02;;;;;;;21.60;10.97;;;5.90;62.30;;;;;;6301445;28;20476;-67
2022/01/31 11:01:23;;;;;;;17.37;10.87;;;6.00;62.70;;;;;;6300469;28;20485;-67
2022/01/31 11:04:31;;;;;;;30.57;11.50;;;5.90;62.40;;;;;;6300841;28;20484;-68
2022/01/31 11:07:36;;;;;;;22.47;10.20;;;6.00;62.10;;;;;;6300840;28;20464;-66
2022/01/31 11:10:39;;;;;;;19.57;11.17;;;6.00;61.80;;;;;;6300339;28;20602;-66
2022/01/31 11:13:43;;;;;;;25.60;10.33;;;6.10;61.60;;;;;;6300108;28;20484;-66
2022/01/31 11:16:47;;;;;;;19.40;9.77;;;6.00;61.20;;;;;;6291015;28;20476;-66
2022/01/31 11:19:56;;;;;;;15.33;10.20;;;6.10;61.90;;;;;;6300487;28;20465;-66
2022/01/31 11:23:03;;;;;;;23.47;9.47;;;6.20;60.60;;;;;;6300044;28;20465;-65
2022/01/31 11:26:09;;;;;;;16.77;8.43;;;6.20;60.20;;;;;;6300051;28;20483;-66
2022/01/31 11:29:12;;;;;;;29.60;9.07;;;6.30;60.00;;;;;;6299993;28;20475;-66
2022/01/31 11:32:16;;;;;;;8.20;6.70;;;6.50;58.90;;;;;;6299854;28;20489;-67
2022/01/31 11:35:20;;;;;;;14.90;7.77;;;6.70;58.20;;;;;;6299619;28;20465;-68
2022/01/31 11:38:24;;;;;;;16.57;9.77;;;6.90;56.90;;;;;;6299461;28;20480;-66
2022/01/31 11:41:28;;;;;;;20.40;7.37;;;7.00;56.50;;;;;;6299115;28;20546;-67
2022/01/31 11:44:39;;;;;;;10.93;6.23;;;7.20;56.00;;;;;;6299121;28;20477;-68
2022/01/31 11:47:45;;;;;;;16.67;6.07;;;7.30;54.90;;;;;;6298832;28;20483;-67
2022/01/31 11:50:53;;;;;;;11.40;6.33;;;7.40;54.50;;;;;;6298539;28;20472;-65
2022/01/31 11:54:07;;;;;;;8.20;6.70;;;7.50;54.40;;;;;;6298359;28;20477;-65
2022/01/31 11:57:15;;;;;;;8.43;6.33;;;7.60;54.10;;;;;;6298283;28;20469;-65
2022/01/31 12:00:20;;;;;;;10.70;6.60;;;7.70;53.60;;;;;;6296566;28;20814;-65
2022/01/31 12:03:23;;;;;;;13.83;6.47;;;7.70;53.10;;;;;;6298711;28;20535;-65
2022/01/31 12:06:29;;;;;;;14.43;6.10;;;7.70;53.10;;;;;;6299532;28;20487;-65
2022/01/31 12:09:34;;;;;;;10.57;5.70;;;7.70;53.00;;;;;;6299500;28;20472;-65
2022/01/31 12:12:53;;;;;;;13.53;6.07;;;7.80;52.20;;;;;;6299296;28;20469;-66
2022/01/31 12:16:08;;;;;;;16.27;6.57;;;7.70;52.50;;;;;;6299221;28;20785;-65
2022/01/31 12:22:48;;;;;;;8.97;5.97;;;8.20;52.10;;;;;;6299682;28;20511;-66
2022/01/31 12:25:52;;;;;;;9.60;6.53;;;8.40;51.30;;;;;;6309568;28;20542;-69
2022/01/31 12:28:57;;;;;;;8.03;6.13;;;8.20;52.00;;;;;;6299652;28;20465;-67
2022/01/31 12:32:15;;;;;;;14.10;7.27;;;7.90;52.90;;;;;;6299973;28;20564;-68
2022/01/31 12:35:32;;;;;;;17.57;6.60;;;8.20;52.70;;;;;;6299377;28;20560;-68
2022/01/31 12:38:35;;;;;;;11.60;6.43;;;8.00;52.70;;;;;;6299455;28;20476;-68
2022/01/31 12:41:40;;;;;;;9.80;6.67;;;8.00;52.50;;;;;;6299217;28;20473;-68
2022/01/31 12:44:46;;;;;;;9.70;5.80;;;8.20;52.60;;;;;;6300394;28;20465;-69
2022/01/31 12:48:12;;;;;;;4.60;3.87;;;10.60;49.50;;;;;;6304078;28;20503;-69
2022/01/31 12:51:15;;;;;;;8.60;5.93;;;15.10;42.30;;;;;;6303957;28;20469;-68
2022/01/31 12:54:22;;;;;;;5.67;4.60;;;19.80;35.30;;;;;;6304247;28;20978;-69
2022/01/31 12:57:27;;;;;;;10.43;4.50;;;22.90;28.80;;;;;;6305023;28;20528;-70
2022/01/31 13:00:38;;;;;;;11.30;4.83;;;24.70;25.70;;;;;;6304651;28;20241;-69
2022/01/31 13:04:03;;;;;;;6.37;4.60;;;25.60;24.40;;;;;;6304194;28;20226;-71
2022/01/31 13:07:08;;;;;;;8.00;4.70;;;25.90;23.20;;;;;;6305192;28;20708;-72
2022/01/31 13:10:38;;;;;;;8.70;5.43;;;25.80;22.60;;;;;;6306226;28;20308;-66
2022/01/31 13:13:42;;;;;;;8.70;5.27;;;26.10;22.00;;;;;;6303205;28;20244;-67
2022/01/31 13:16:57;;;;;;;10.40;5.10;;;25.90;21.90;;;;;;6303013;28;20576;-67
2022/01/31 13:20:03;;;;;;;8.43;5.07;;;24.90;22.20;;;;;;6302909;28;20310;-67
2022/01/31 13:23:06;;;;;;;8.27;4.40;;;23.40;22.60;;;;;;6297431;28;20239;-67
2022/01/31 13:26:11;;;;;;;5.73;4.77;;;21.80;23.50;;;;;;6300723;28;20223;-67
2022/01/31 13:29:32;;;;;;;9.00;4.87;;;19.40;24.80;;;;;;6278095;28;20695;-68
2022/01/31 13:32:37;;;;;;;8.67;4.50;;;16.90;27.50;;;;;;6278037;28;20481;-67
2022/01/31 13:35:42;;;;;;;13.43;5.53;;;16.40;28.40;;;;;;6299230;28;20473;-67
2022/01/31 13:38:45;;;;;;;7.87;4.67;;;16.10;28.70;;;;;;6302361;28;20811;-68
2022/01/31 13:41:49;;;;;;;7.13;4.30;;;15.90;29.60;;;;;;6302512;28;20477;-68
2022/01/31 13:44:55;;;;;;;7.30;5.00;;;15.80;28.90;;;;;;6301313;28;20534;-67
2022/01/31 13:48:02;;;;;;;11.10;5.47;;;15.60;29.80;;;;;;6302994;28;20469;-68
2022/01/31 13:51:11;;;;;;;9.80;5.23;;;15.50;29.70;;;;;;6302359;28;20542;-69
2022/01/31 13:54:17;;;;;;;9.20;5.10;;;14.80;30.00;;;;;;6302800;28;20469;-68
2022/01/31 13:57:21;;;;;;;8.50;5.17;;;13.80;31.70;;;;;;6301991;28;20473;-67
2022/01/31 14:00:26;;;;;;;20.70;7.33;;;12.80;33.10;;;;;;6302095;28;20479;-68
2022/01/31 14:03:31;;;;;;;9.43;5.23;;;12.40;34.40;;;;;;6289505;28;20474;-69
2022/01/31 14:06:36;;;;;;;8.30;4.47;;;11.90;35.20;;;;;;6288664;28;20560;-67
2022/01/31 14:09:40;;;;;;;14.00;4.90;;;11.70;35.60;;;;;;6300313;28;20480;-67
2022/01/31 14:12:43;;;;;;;5.47;4.30;;;11.50;36.00;;;;;;6276649;28;20504;-67
2022/01/31 14:15:51;;;;;;;9.83;4.70;;;11.40;36.40;;;;;;6276894;28;20473;-67
2022/01/31 14:18:56;;;;;;;10.20;4.10;;;11.40;36.90;;;;;;6283838;28;20469;-67
2022/01/31 14:22:00;;;;;;;6.07;3.87;;;12.00;36.10;;;;;;6301198;28;20491;-67
2022/01/31 14:25:09;;;;;;;6.77;4.40;;;12.50;35.60;;;;;;6301565;28;20996;-67
2022/01/31 14:28:13;;;;;;;6.33;4.40;;;13.00;34.80;;;;;;6301748;28;20472;-67
2022/01/31 14:31:30;;;;;;;10.23;4.47;;;13.00;34.10;;;;;;6300875;28;20457;-68
2022/01/31 14:34:33;;;;;;;9.23;5.27;;;12.70;34.30;;;;;;6301773;28;20480;-67
2022/01/31 14:37:48;;;;;;;6.17;4.10;;;12.50;34.70;;;;;;6302053;28;20486;-71
2022/01/31 14:47:31;;;;;;;6.23;4.40;;;11.30;36.40;;;;;;6278831;28;20465;-64
2022/01/31 14:50:36;;;;;;;7.53;5.37;;;10.80;37.20;;;;;;6301083;28;20465;-64
2022/01/31 14:53:39;;;;;;;10.20;5.70;;;10.50;37.70;;;;;;6300484;28;20488;-63
2022/01/31 14:56:43;;;;;;;7.10;4.50;;;10.20;38.20;;;;;;6301531;28;20994;-68
2022/01/31 14:59:58;;;;;;;9.97;5.70;;;10.00;39.00;;;;;;6305186;28;20473;-67
2022/01/31 15:03:05;;;;;;;9.40;5.60;;;9.70;40.60;;;;;;6300796;28;20473;-70
2022/01/31 15:06:09;;;;;;;11.40;5.13;;;9.60;41.20;;;;;;6299865;28;20470;-69
2022/01/31 15:09:12;;;;;;;7.20;5.00;;;9.40;41.50;;;;;;6299386;28;20480;-64
2022/01/31 15:12:15;;;;;;;6.83;5.13;;;9.30;41.70;;;;;;6275045;28;20551;-64
2022/01/31 15:15:20;;;;;;;4.50;4.10;;;9.10;41.90;;;;;;6275123;28;20775;-67
2022/01/31 15:18:26;;;;;;;7.63;5.50;;;8.90;42.20;;;;;;6275145;28;20470;-69
2022/01/31 15:21:33;;;;;;;8.80;4.83;;;8.70;42.80;;;;;;6274839;28;20482;-68
2022/01/31 15:24:37;;;;;;;9.80;5.47;;;8.50;43.10;;;;;;6276616;28;20481;-68
2022/01/31 15:27:40;;;;;;;10.60;4.83;;;8.40;43.50;;;;;;6275805;28;20470;-68
2022/01/31 15:30:43;;;;;;;10.00;6.20;;;8.30;44.00;;;;;;6275078;28;20466;-66
2022/01/31 15:33:53;;;;;;;7.43;4.83;;;8.20;44.70;;;;;;6276069;28;20477;-67
2022/01/31 15:36:56;;;;;;;7.73;4.90;;;8.00;45.10;;;;;;6299859;28;20462;-69
2022/01/31 15:39:59;;;;;;;8.33;4.90;;;7.90;45.10;;;;;;6298647;28;20480;-65
2022/01/31 15:43:11;;;;;;;14.03;5.70;;;7.80;45.90;;;;;;6297997;28;20495;-66
2022/01/31 15:46:14;;;;;;;7.97;5.57;;;7.70;46.20;;;;;;6299335;28;20470;-65
2022/01/31 15:49:18;;;;;;;8.23;5.60;;;7.50;47.50;;;;;;6297785;28;20451;-65
2022/01/31 15:52:22;;;;;;;12.37;7.10;;;7.50;47.30;;;;;;6283529;28;20459;-65
2022/01/31 15:55:25;;;;;;;11.37;5.90;;;7.40;47.30;;;;;;6292428;28;20833;-66
2022/01/31 15:58:28;;;;;;;4.63;3.00;;;7.30;48.10;;;;;;6291523;28;20448;-66
2022/01/31 16:01:31;;;;;;;6.10;3.20;;;7.20;50.70;;;;;;6274142;28;20489;-66
2022/01/31 16:04:36;;;;;;;8.40;4.90;;;7.20;52.90;;;;;;6274317;28;20790;-66
2022/01/31 16:07:39;;;;;;;11.43;6.33;;;7.20;51.60;;;;;;6288324;28;20473;-69
2022/01/31 16:10:46;;;;;;;9.97;6.73;;;7.10;50.10;;;;;;6300797;28;20497;-64
2022/01/31 16:13:49;;;;;;;8.13;5.53;;;7.00;50.10;;;;;;6298929;28;20766;-66
2022/01/31 16:16:52;;;;;;;16.40;6.50;;;6.90;50.20;;;;;;6298977;28;20484;-66
2022/01/31 16:19:57;;;;;;;10.33;6.07;;;6.90;50.60;;;;;;6298835;28;20479;-65
2022/01/31 16:23:00;;;;;;;11.80;5.20;;;6.90;51.30;;;;;;6304311;28;20477;-65
2022/01/31 16:26:04;;;;;;;15.47;5.40;;;6.80;51.50;;;;;;6281281;28;20573;-65
2022/01/31 16:29:07;;;;;;;11.60;5.60;;;6.80;52.20;;;;;;6303974;28;20988;-64
2022/01/31 16:32:10;;;;;;;7.00;4.60;;;6.70;52.50;;;;;;6303751;28;20978;-65
2022/01/31 16:35:15;;;;;;;4.93;2.70;;;6.70;53.00;;;;;;6299714;28;20485;-64
2022/01/31 16:38:20;;;;;;;1.80;1.70;;;6.60;56.20;;;;;;6303792;28;20472;-65
2022/01/31 16:41:23;;;;;;;2.73;1.73;;;6.70;56.80;;;;;;6304272;28;20488;-65